sensor_id;sensor_type;location;lat;lon;timestamp;pressure;altitude;pressure_sealevel;temperature
48854;BMP280;34673;52.808;17.856;2023-07-13T00:02:09;99949.75;;;20.38
48854;BMP280;34673;52.808;17.856;2023-07-13T00:04:36;99946.63;;;20.31
48854;BMP280;34673;52.808;17.856;2023-07-13T00:07:04;99956.53;;;20.26
48854;BMP280;34673;52.808;17.856;2023-07-13T00:09:32;99959.34;;;20.23
48854;BMP280;34673;52.808;17.856;2023-07-13T00:11:59;99953.47;;;20.18
48854;BMP280;34673;52.808;17.856;2023-07-13T00:14:28;99950.09;;;20.16
48854;BMP280;34673;52.808;17.856;2023-07-13T00:16:55;99960.41;;;20.19
48854;BMP280;34673;52.808;17.856;2023-07-13T00:19:23;99961.97;;;20.23
48854;BMP280;34673;52.808;17.856;2023-07-13T00:21:50;99959.41;;;20.22
48854;BMP280;34673;52.808;17.856;2023-07-13T00:24:18;99960.84;;;20.11
48854;BMP280;34673;52.808;17.856;2023-07-13T00:26:51;99966.50;;;20.04
48854;BMP280;34673;52.808;17.856;2023-07-13T00:29:19;99970.06;;;20.03
48854;BMP280;34673;52.808;17.856;2023-07-13T00:31:48;99969.91;;;20.06
48854;BMP280;34673;52.808;17.856;2023-07-13T00:34:16;99980.56;;;20.03
48854;BMP280;34673;52.808;17.856;2023-07-13T00:36:43;99984.13;;;20.02
48854;BMP280;34673;52.808;17.856;2023-07-13T00:39:11;99983.44;;;19.98
48854;BMP280;34673;52.808;17.856;2023-07-13T00:41:38;99979.84;;;19.83
48854;BMP280;34673;52.808;17.856;2023-07-13T00:44:13;100005.75;;;19.89
48854;BMP280;34673;52.808;17.856;2023-07-13T00:46:41;100004.69;;;19.93
48854;BMP280;34673;52.808;17.856;2023-07-13T00:49:11;100005.47;;;19.96
48854;BMP280;34673;52.808;17.856;2023-07-13T00:51:58;100020.28;;;19.97
48854;BMP280;34673;52.808;17.856;2023-07-13T00:54:30;100021.38;;;19.92
48854;BMP280;34673;52.808;17.856;2023-07-13T00:57:02;100013.78;;;19.86
48854;BMP280;34673;52.808;17.856;2023-07-13T00:59:31;100015.75;;;19.83
48854;BMP280;34673;52.808;17.856;2023-07-13T01:02:02;100013.88;;;19.85
48854;BMP280;34673;52.808;17.856;2023-07-13T01:04:29;99999.16;;;19.82
48854;BMP280;34673;52.808;17.856;2023-07-13T01:06:57;99996.53;;;19.82
48854;BMP280;34673;52.808;17.856;2023-07-13T01:09:27;99993.44;;;19.74
48854;BMP280;34673;52.808;17.856;2023-07-13T01:11:55;99992.84;;;19.69
48854;BMP280;34673;52.808;17.856;2023-07-13T01:14:23;99995.91;;;19.77
48854;BMP280;34673;52.808;17.856;2023-07-13T01:16:51;99991.66;;;19.75
48854;BMP280;34673;52.808;17.856;2023-07-13T01:21:52;100003.78;;;19.77
48854;BMP280;34673;52.808;17.856;2023-07-13T01:24:19;99988.97;;;19.76
48854;BMP280;34673;52.808;17.856;2023-07-13T01:26:48;99985.56;;;19.74
48854;BMP280;34673;52.808;17.856;2023-07-13T01:29:16;100002.69;;;19.81
48854;BMP280;34673;52.808;17.856;2023-07-13T01:31:43;100003.72;;;19.79
48854;BMP280;34673;52.808;17.856;2023-07-13T01:34:12;100008.09;;;19.78
48854;BMP280;34673;52.808;17.856;2023-07-13T01:36:39;100020.31;;;19.79
48854;BMP280;34673;52.808;17.856;2023-07-13T01:39:07;100013.28;;;19.80
48854;BMP280;34673;52.808;17.856;2023-07-13T01:41:34;100015.06;;;19.79
48854;BMP280;34673;52.808;17.856;2023-07-13T01:44:02;100022.94;;;19.79
48854;BMP280;34673;52.808;17.856;2023-07-13T01:46:30;100022.16;;;19.77
48854;BMP280;34673;52.808;17.856;2023-07-13T01:48:58;100022.31;;;19.74
48854;BMP280;34673;52.808;17.856;2023-07-13T01:51:25;100019.25;;;19.66
48854;BMP280;34673;52.808;17.856;2023-07-13T01:53:52;100028.00;;;19.65
48854;BMP280;34673;52.808;17.856;2023-07-13T01:56:20;100022.63;;;19.68
48854;BMP280;34673;52.808;17.856;2023-07-13T01:58:48;100018.13;;;19.70
48854;BMP280;34673;52.808;17.856;2023-07-13T02:01:15;100010.25;;;19.70
48854;BMP280;34673;52.808;17.856;2023-07-13T02:03:43;100017.97;;;19.73
48854;BMP280;34673;52.808;17.856;2023-07-13T02:06:10;100017.22;;;19.71
48854;BMP280;34673;52.808;17.856;2023-07-13T02:08:39;100010.03;;;19.75
48854;BMP280;34673;52.808;17.856;2023-07-13T02:11:07;100008.25;;;19.75
48854;BMP280;34673;52.808;17.856;2023-07-13T02:13:35;100012.66;;;19.75
48854;BMP280;34673;52.808;17.856;2023-07-13T02:16:02;100002.31;;;19.72
48854;BMP280;34673;52.808;17.856;2023-07-13T02:18:30;100004.84;;;19.73
48854;BMP280;34673;52.808;17.856;2023-07-13T02:20:57;100001.50;;;19.71
48854;BMP280;34673;52.808;17.856;2023-07-13T02:23:24;100005.03;;;19.70
48854;BMP280;34673;52.808;17.856;2023-07-13T02:25:56;99993.88;;;19.65
48854;BMP280;34673;52.808;17.856;2023-07-13T02:28:24;100009.53;;;19.68
48854;BMP280;34673;52.808;17.856;2023-07-13T02:30:52;99991.56;;;19.59
48854;BMP280;34673;52.808;17.856;2023-07-13T02:33:19;99993.88;;;19.65
48854;BMP280;34673;52.808;17.856;2023-07-13T02:35:47;99985.72;;;19.54
48854;BMP280;34673;52.808;17.856;2023-07-13T02:38:15;99940.69;;;19.28
48854;BMP280;34673;52.808;17.856;2023-07-13T02:40:42;99990.66;;;19.60
48854;BMP280;34673;52.808;17.856;2023-07-13T02:43:09;100001.75;;;19.65
48854;BMP280;34673;52.808;17.856;2023-07-13T02:45:37;99993.28;;;19.60
48854;BMP280;34673;52.808;17.856;2023-07-13T02:48:04;99999.09;;;19.66
48854;BMP280;34673;52.808;17.856;2023-07-13T02:50:31;100005.47;;;19.61
48854;BMP280;34673;52.808;17.856;2023-07-13T02:52:59;99998.97;;;19.51
48854;BMP280;34673;52.808;17.856;2023-07-13T02:55:26;100008.09;;;19.43
48854;BMP280;34673;52.808;17.856;2023-07-13T02:57:54;100003.00;;;19.40
48854;BMP280;34673;52.808;17.856;2023-07-13T03:00:21;99995.91;;;19.42
48854;BMP280;34673;52.808;17.856;2023-07-13T03:02:49;100002.16;;;19.40
48854;BMP280;34673;52.808;17.856;2023-07-13T03:05:17;99998.22;;;19.31
48854;BMP280;34673;52.808;17.856;2023-07-13T03:07:44;100003.69;;;19.26
48854;BMP280;34673;52.808;17.856;2023-07-13T03:10:11;100007.31;;;19.24
48854;BMP280;34673;52.808;17.856;2023-07-13T03:12:47;100005.31;;;19.29
48854;BMP280;34673;52.808;17.856;2023-07-13T03:15:21;100004.31;;;19.32
48854;BMP280;34673;52.808;17.856;2023-07-13T03:17:50;100010.28;;;19.35
48854;BMP280;34673;52.808;17.856;2023-07-13T03:20:18;100007.66;;;19.35
48854;BMP280;34673;52.808;17.856;2023-07-13T03:22:46;100010.13;;;19.38
48854;BMP280;34673;52.808;17.856;2023-07-13T03:25:16;100013.47;;;19.40
48854;BMP280;34673;52.808;17.856;2023-07-13T03:27:43;100003.72;;;19.44
48854;BMP280;34673;52.808;17.856;2023-07-13T03:30:11;100009.41;;;19.52
48854;BMP280;34673;52.808;17.856;2023-07-13T03:32:39;100005.63;;;19.58
48854;BMP280;34673;52.808;17.856;2023-07-13T03:35:07;99993.91;;;19.47
48854;BMP280;34673;52.808;17.856;2023-07-13T03:37:36;100012.56;;;19.59
48854;BMP280;34673;52.808;17.856;2023-07-13T03:40:15;100022.44;;;19.54
48854;BMP280;34673;52.808;17.856;2023-07-13T03:42:44;100023.53;;;19.49
48854;BMP280;34673;52.808;17.856;2023-07-13T03:45:14;100027.63;;;19.55
48854;BMP280;34673;52.808;17.856;2023-07-13T03:47:42;100030.03;;;19.60
48854;BMP280;34673;52.808;17.856;2023-07-13T03:50:10;100033.41;;;19.62
48854;BMP280;34673;52.808;17.856;2023-07-13T03:52:37;100029.16;;;19.59
48854;BMP280;34673;52.808;17.856;2023-07-13T03:55:05;100030.59;;;19.65
48854;BMP280;34673;52.808;17.856;2023-07-13T03:57:33;100026.16;;;19.67
48854;BMP280;34673;52.808;17.856;2023-07-13T04:00:07;100015.81;;;19.64
48854;BMP280;34673;52.808;17.856;2023-07-13T04:02:41;100016.13;;;19.58
48854;BMP280;34673;52.808;17.856;2023-07-13T04:05:09;100023.91;;;19.59
48854;BMP280;34673;52.808;17.856;2023-07-13T04:07:36;100014.72;;;19.51
48854;BMP280;34673;52.808;17.856;2023-07-13T04:10:06;100020.75;;;19.53
48854;BMP280;34673;52.808;17.856;2023-07-13T04:12:33;100031.88;;;19.58
48854;BMP280;34673;52.808;17.856;2023-07-13T04:15:00;100024.06;;;19.56
48854;BMP280;34673;52.808;17.856;2023-07-13T04:17:28;100026.31;;;19.64
48854;BMP280;34673;52.808;17.856;2023-07-13T04:19:55;100023.63;;;19.65
48854;BMP280;34673;52.808;17.856;2023-07-13T04:22:22;100019.06;;;19.69
48854;BMP280;34673;52.808;17.856;2023-07-13T04:24:50;100000.22;;;19.61
48854;BMP280;34673;52.808;17.856;2023-07-13T04:27:17;100020.91;;;19.67
48854;BMP280;34673;52.808;17.856;2023-07-13T04:29:45;100026.94;;;19.69
48854;BMP280;34673;52.808;17.856;2023-07-13T04:32:12;100045.78;;;19.77
48854;BMP280;34673;52.808;17.856;2023-07-13T04:34:40;100048.91;;;19.84
48854;BMP280;34673;52.808;17.856;2023-07-13T04:37:07;100058.25;;;19.89
48854;BMP280;34673;52.808;17.856;2023-07-13T04:39:35;100059.81;;;19.93
48854;BMP280;34673;52.808;17.856;2023-07-13T04:42:02;100057.25;;;19.92
48854;BMP280;34673;52.808;17.856;2023-07-13T04:44:30;100062.88;;;20.02
48854;BMP280;34673;52.808;17.856;2023-07-13T04:46:57;100067.06;;;20.06
48854;BMP280;34673;52.808;17.856;2023-07-13T04:49:25;100069.53;;;20.09
48854;BMP280;34673;52.808;17.856;2023-07-13T04:51:52;100070.16;;;20.14
48854;BMP280;34673;52.808;17.856;2023-07-13T04:54:21;100060.56;;;20.13
48854;BMP280;34673;52.808;17.856;2023-07-13T04:56:49;100062.41;;;20.11
48854;BMP280;34673;52.808;17.856;2023-07-13T04:59:16;100058.03;;;20.11
48854;BMP280;34673;52.808;17.856;2023-07-13T05:01:44;100075.97;;;20.19
48854;BMP280;34673;52.808;17.856;2023-07-13T05:04:11;100074.28;;;20.18
48854;BMP280;34673;52.808;17.856;2023-07-13T05:06:39;100082.63;;;20.26
48854;BMP280;34673;52.808;17.856;2023-07-13T05:09:07;100077.38;;;20.26
48854;BMP280;34673;52.808;17.856;2023-07-13T05:11:34;100062.53;;;20.25
48854;BMP280;34673;52.808;17.856;2023-07-13T05:14:02;100081.97;;;20.39
48854;BMP280;34673;52.808;17.856;2023-07-13T05:16:29;100061.78;;;20.23
48854;BMP280;34673;52.808;17.856;2023-07-13T05:18:57;100090.31;;;20.47
48854;BMP280;34673;52.808;17.856;2023-07-13T05:21:24;100096.25;;;20.50
48854;BMP280;34673;52.808;17.856;2023-07-13T05:23:51;100074.34;;;20.34
48854;BMP280;34673;52.808;17.856;2023-07-13T05:26:19;100110.84;;;20.56
48854;BMP280;34673;52.808;17.856;2023-07-13T05:28:47;100116.13;;;20.56
48854;BMP280;34673;52.808;17.856;2023-07-13T05:31:15;100125.63;;;20.58
48854;BMP280;34673;52.808;17.856;2023-07-13T05:33:42;100100.81;;;20.47
48854;BMP280;34673;52.808;17.856;2023-07-13T05:36:10;100118.75;;;20.56
48854;BMP280;34673;52.808;17.856;2023-07-13T05:38:37;100115.28;;;20.55
48854;BMP280;34673;52.808;17.856;2023-07-13T05:41:04;100115.16;;;20.57
48854;BMP280;34673;52.808;17.856;2023-07-13T05:43:33;100115.94;;;20.59
48854;BMP280;34673;52.808;17.856;2023-07-13T05:46:00;100102.19;;;20.54
48854;BMP280;34673;52.808;17.856;2023-07-13T05:48:27;100095.22;;;20.53
48854;BMP280;34673;52.808;17.856;2023-07-13T05:50:55;100097.72;;;20.56
48854;BMP280;34673;52.808;17.856;2023-07-13T05:53:22;100096.94;;;20.54
48854;BMP280;34673;52.808;17.856;2023-07-13T05:55:50;100105.59;;;20.56
48854;BMP280;34673;52.808;17.856;2023-07-13T05:58:17;100101.84;;;20.60
48854;BMP280;34673;52.808;17.856;2023-07-13T06:00:46;100095.78;;;20.75
48854;BMP280;34673;52.808;17.856;2023-07-13T06:03:14;100085.09;;;20.78
48854;BMP280;34673;52.808;17.856;2023-07-13T06:05:42;100102.84;;;20.91
48854;BMP280;34673;52.808;17.856;2023-07-13T06:08:09;100107.16;;;20.92
48854;BMP280;34673;52.808;17.856;2023-07-13T06:10:37;100097.75;;;20.88
48854;BMP280;34673;52.808;17.856;2023-07-13T06:13:04;100100.22;;;20.91
48854;BMP280;34673;52.808;17.856;2023-07-13T06:15:32;100109.97;;;20.89
48854;BMP280;34673;52.808;17.856;2023-07-13T06:18:00;100109.19;;;20.87
48854;BMP280;34673;52.808;17.856;2023-07-13T06:20:28;100097.16;;;20.83
48854;BMP280;34673;52.808;17.856;2023-07-13T06:22:56;100111.91;;;20.85
48854;BMP280;34673;52.808;17.856;2023-07-13T06:25:26;100106.66;;;20.85
48854;BMP280;34673;52.808;17.856;2023-07-13T06:27:53;100111.81;;;20.87
48854;BMP280;34673;52.808;17.856;2023-07-13T06:30:21;100109.19;;;20.87
48854;BMP280;34673;52.808;17.856;2023-07-13T06:32:48;100115.06;;;20.92
48854;BMP280;34673;52.808;17.856;2023-07-13T06:35:16;100113.97;;;20.96
48854;BMP280;34673;52.808;17.856;2023-07-13T06:37:43;100113.97;;;20.96
48854;BMP280;34673;52.808;17.856;2023-07-13T06:40:11;100120.91;;;20.97
48854;BMP280;34673;52.808;17.856;2023-07-13T06:42:39;100119.22;;;20.96
48854;BMP280;34673;52.808;17.856;2023-07-13T06:45:07;100129.56;;;20.99
48854;BMP280;34673;52.808;17.856;2023-07-13T06:47:34;100132.97;;;21.01
48854;BMP280;34673;52.808;17.856;2023-07-13T06:50:01;100138.06;;;21.04
48854;BMP280;34673;52.808;17.856;2023-07-13T06:52:29;100136.03;;;21.09
48854;BMP280;34673;52.808;17.856;2023-07-13T06:54:56;100127.72;;;21.01
48854;BMP280;34673;52.808;17.856;2023-07-13T06:57:23;100144.34;;;21.17
48854;BMP280;34673;52.808;17.856;2023-07-13T06:59:51;100140.59;;;21.21
48854;BMP280;34673;52.808;17.856;2023-07-13T07:02:18;100147.22;;;21.29
48854;BMP280;34673;52.808;17.856;2023-07-13T07:04:45;100146.03;;;21.34
48854;BMP280;34673;52.808;17.856;2023-07-13T07:07:13;100145.00;;;21.37
48854;BMP280;34673;52.808;17.856;2023-07-13T07:09:40;100135.50;;;21.34
48854;BMP280;34673;52.808;17.856;2023-07-13T07:12:08;100141.28;;;21.41
48854;BMP280;34673;52.808;17.856;2023-07-13T07:14:36;100146.22;;;21.47
48854;BMP280;34673;52.808;17.856;2023-07-13T07:17:03;100141.09;;;21.44
48854;BMP280;34673;52.808;17.856;2023-07-13T07:19:31;100159.78;;;21.55
48854;BMP280;34673;52.808;17.856;2023-07-13T07:21:58;100159.22;;;21.50
48854;BMP280;34673;52.808;17.856;2023-07-13T07:24:26;100156.56;;;21.50
48854;BMP280;34673;52.808;17.856;2023-07-13T07:26:53;100168.59;;;21.54
48854;BMP280;34673;52.808;17.856;2023-07-13T07:29:24;100166.09;;;21.53
48854;BMP280;34673;52.808;17.856;2023-07-13T07:31:56;100170.31;;;21.55
48854;BMP280;34673;52.808;17.856;2023-07-13T07:34:26;100167.09;;;21.50
48854;BMP280;34673;52.808;17.856;2023-07-13T07:36:54;100169.72;;;21.50
48854;BMP280;34673;52.808;17.856;2023-07-13T07:39:24;100179.13;;;21.54
48854;BMP280;34673;52.808;17.856;2023-07-13T07:41:51;100170.47;;;21.52
48854;BMP280;34673;52.808;17.856;2023-07-13T07:44:23;100178.28;;;21.54
48854;BMP280;34673;52.808;17.856;2023-07-13T07:46:50;100177.28;;;21.56
48854;BMP280;34673;52.808;17.856;2023-07-13T07:49:18;100179.56;;;21.62
48854;BMP280;34673;52.808;17.856;2023-07-13T07:51:45;100175.81;;;21.66
48854;BMP280;34673;52.808;17.856;2023-07-13T07:54:13;100183.38;;;21.73
48854;BMP280;34673;52.808;17.856;2023-07-13T07:56:52;100183.84;;;21.79
48854;BMP280;34673;52.808;17.856;2023-07-13T07:59:22;100183.41;;;21.87
48854;BMP280;34673;52.808;17.856;2023-07-13T08:01:53;100180.59;;;21.90
48854;BMP280;34673;52.808;17.856;2023-07-13T08:04:23;100184.00;;;21.92
48854;BMP280;34673;52.808;17.856;2023-07-13T08:06:53;100176.03;;;21.94
48854;BMP280;34673;52.808;17.856;2023-07-13T08:09:23;100177.25;;;22.02
48854;BMP280;34673;52.808;17.856;2023-07-13T08:11:50;100177.66;;;22.10
48854;BMP280;34673;52.808;17.856;2023-07-13T08:14:22;100175.28;;;22.36
48854;BMP280;34673;52.808;17.856;2023-07-13T08:16:54;100166.84;;;22.74
48854;BMP280;34673;52.808;17.856;2023-07-13T08:19:21;100172.84;;;23.19
48854;BMP280;34673;52.808;17.856;2023-07-13T08:21:48;100170.31;;;23.59
48854;BMP280;34673;52.808;17.856;2023-07-13T08:24:16;100165.66;;;23.89
48854;BMP280;34673;52.808;17.856;2023-07-13T08:26:45;100173.00;;;24.11
48854;BMP280;34673;52.808;17.856;2023-07-13T08:29:13;100153.13;;;24.31
48854;BMP280;34673;52.808;17.856;2023-07-13T08:31:40;100163.31;;;24.63
48854;BMP280;34673;52.808;17.856;2023-07-13T08:34:08;100167.72;;;24.88
48854;BMP280;34673;52.808;17.856;2023-07-13T08:36:35;100166.81;;;25.13
48854;BMP280;34673;52.808;17.856;2023-07-13T08:39:02;100159.78;;;25.38
48854;BMP280;34673;52.808;17.856;2023-07-13T08:41:30;100166.25;;;25.58
48854;BMP280;34673;52.808;17.856;2023-07-13T08:43:58;100164.03;;;25.76
48854;BMP280;34673;52.808;17.856;2023-07-13T08:46:35;100150.66;;;25.90
48854;BMP280;34673;52.808;17.856;2023-07-13T08:49:18;100158.63;;;26.01
48854;BMP280;34673;52.808;17.856;2023-07-13T08:52:02;100161.81;;;26.18
48854;BMP280;34673;52.808;17.856;2023-07-13T08:54:39;100166.41;;;26.27
48854;BMP280;34673;52.808;17.856;2023-07-13T08:57:17;100164.97;;;26.34
48854;BMP280;34673;52.808;17.856;2023-07-13T08:59:46;100162.31;;;26.45
48854;BMP280;34673;52.808;17.856;2023-07-13T09:02:23;100161.53;;;26.56
48854;BMP280;34673;52.808;17.856;2023-07-13T09:05:10;100152.00;;;26.65
48854;BMP280;34673;52.808;17.856;2023-07-13T09:08:10;100155.84;;;26.83
48854;BMP280;34673;52.808;17.856;2023-07-13T09:10:45;100156.34;;;26.77
48854;BMP280;34673;52.808;17.856;2023-07-13T09:15:44;100157.91;;;26.91
48854;BMP280;34673;52.808;17.856;2023-07-13T09:20:45;100147.91;;;26.72
48854;BMP280;34673;52.808;17.856;2023-07-13T09:23:16;100144.75;;;26.67
48854;BMP280;34673;52.808;17.856;2023-07-13T09:25:47;100140.69;;;26.74
48854;BMP280;34673;52.808;17.856;2023-07-13T09:28:21;100147.91;;;26.72
48854;BMP280;34673;52.808;17.856;2023-07-13T09:33:22;100147.16;;;26.92
48854;BMP280;34673;52.808;17.856;2023-07-13T09:35:50;100118.44;;;26.86
48854;BMP280;34673;52.808;17.856;2023-07-13T09:38:19;100147.63;;;26.97
48854;BMP280;34673;52.808;17.856;2023-07-13T09:46:28;100165.44;;;26.28
48854;BMP280;34673;52.808;17.856;2023-07-13T09:48:56;100163.69;;;26.04
48854;BMP280;34673;52.808;17.856;2023-07-13T09:51:23;100170.81;;;25.80
48854;BMP280;34673;52.808;17.856;2023-07-13T09:53:51;100146.84;;;25.46
48854;BMP280;34673;52.808;17.856;2023-07-13T09:56:20;100168.69;;;25.37
48854;BMP280;34673;52.808;17.856;2023-07-13T09:58:48;100158.16;;;25.11
48854;BMP280;34673;52.808;17.856;2023-07-13T10:01:32;100174.06;;;24.98
48854;BMP280;34673;52.808;17.856;2023-07-13T10:04:00;100168.16;;;24.69
48854;BMP280;34673;52.808;17.856;2023-07-13T10:06:28;100178.13;;;24.53
48854;BMP280;34673;52.808;17.856;2023-07-13T10:08:56;100187.19;;;24.36
48854;BMP280;34673;52.808;17.856;2023-07-13T10:11:29;100171.09;;;24.26
48854;BMP280;34673;52.808;17.856;2023-07-13T10:14:00;100175.66;;;24.24
48854;BMP280;34673;52.808;17.856;2023-07-13T10:16:33;100178.09;;;24.27
48854;BMP280;34673;52.808;17.856;2023-07-13T10:19:19;100160.72;;;24.23
48854;BMP280;34673;52.808;17.856;2023-07-13T10:21:55;100160.72;;;24.23
48854;BMP280;34673;52.808;17.856;2023-07-13T10:24:26;100158.63;;;24.28
48854;BMP280;34673;52.808;17.856;2023-07-13T10:27:15;100159.88;;;24.23
48854;BMP280;34673;52.808;17.856;2023-07-13T10:29:48;100169.41;;;24.25
48854;BMP280;34673;52.808;17.856;2023-07-13T10:32:19;100172.59;;;24.30
48854;BMP280;34673;52.808;17.856;2023-07-13T10:34:51;100170.69;;;24.32
48854;BMP280;34673;52.808;17.856;2023-07-13T10:37:25;100166.66;;;24.40
48854;BMP280;34673;52.808;17.856;2023-07-13T10:39:56;100167.31;;;24.43
48854;BMP280;34673;52.808;17.856;2023-07-13T10:42:35;100165.41;;;24.45
48854;BMP280;34673;52.808;17.856;2023-07-13T10:45:17;100160.34;;;24.55
48854;BMP280;34673;52.808;17.856;2023-07-13T10:47:46;100165.97;;;24.63
48854;BMP280;34673;52.808;17.856;2023-07-13T10:50:19;100158.13;;;24.74
48854;BMP280;34673;52.808;17.856;2023-07-13T10:52:53;100145.72;;;24.88
48854;BMP280;34673;52.808;17.856;2023-07-13T10:55:54;100159.47;;;24.93
48854;BMP280;34673;52.808;17.856;2023-07-13T10:58:29;100161.66;;;24.99
48854;BMP280;34673;52.808;17.856;2023-07-13T11:01:08;100161.97;;;25.07
48854;BMP280;34673;52.808;17.856;2023-07-13T11:03:46;100171.72;;;25.19
48854;BMP280;34673;52.808;17.856;2023-07-13T11:08:55;100151.16;;;25.47
48854;BMP280;34673;52.808;17.856;2023-07-13T11:13:59;100156.50;;;25.58
48854;BMP280;34673;52.808;17.856;2023-07-13T11:16:49;100164.03;;;25.76
48854;BMP280;34673;52.808;17.856;2023-07-13T11:25:01;100161.25;;;25.90
48854;BMP280;34673;52.808;17.856;2023-07-13T11:35:36;100168.91;;;26.17
48854;BMP280;34673;52.808;17.856;2023-07-13T11:38:21;100168.69;;;26.20
48854;BMP280;34673;52.808;17.856;2023-07-13T11:40:53;100156.00;;;26.13
48854;BMP280;34673;52.808;17.856;2023-07-13T11:43:22;100139.63;;;26.19
48854;BMP280;34673;52.808;17.856;2023-07-13T11:45:52;100150.47;;;26.27
48854;BMP280;34673;52.808;17.856;2023-07-13T11:48:26;100140.56;;;26.06
48854;BMP280;34673;52.808;17.856;2023-07-13T11:51:02;100148.09;;;25.89
48854;BMP280;34673;52.808;17.856;2023-07-13T11:53:45;100148.09;;;25.64
48854;BMP280;34673;52.808;17.856;2023-07-13T11:56:13;100152.34;;;25.43
48854;BMP280;34673;52.808;17.856;2023-07-13T11:58:41;100142.47;;;25.21
48854;BMP280;34673;52.808;17.856;2023-07-13T12:01:26;100151.16;;;25.10
48854;BMP280;34673;52.808;17.856;2023-07-13T12:04:01;100162.84;;;24.95
48854;BMP280;34673;52.808;17.856;2023-07-13T12:06:32;100160.13;;;24.84
48854;BMP280;34673;52.808;17.856;2023-07-13T12:09:01;100154.72;;;24.72
48854;BMP280;34673;52.808;17.856;2023-07-13T12:11:30;100158.25;;;24.60
48854;BMP280;34673;52.808;17.856;2023-07-13T12:14:03;100169.03;;;24.57
48854;BMP280;34673;52.808;17.856;2023-07-13T12:16:32;100165.22;;;24.61
48854;BMP280;34673;52.808;17.856;2023-07-13T12:19:01;100177.06;;;24.68
48854;BMP280;34673;52.808;17.856;2023-07-13T12:21:33;100154.19;;;24.80
48854;BMP280;34673;52.808;17.856;2023-07-13T12:24:01;100156.16;;;25.02
48854;BMP280;34673;52.808;17.856;2023-07-13T12:26:31;100147.88;;;25.19
48854;BMP280;34673;52.808;17.856;2023-07-13T12:29:01;100151.69;;;25.52
48854;BMP280;34673;52.808;17.856;2023-07-13T12:31:36;100154.03;;;25.92
48854;BMP280;34673;52.808;17.856;2023-07-13T12:34:13;100122.00;;;25.95
48854;BMP280;34673;52.808;17.856;2023-07-13T12:36:47;100153.88;;;26.29
48854;BMP280;34673;52.808;17.856;2023-07-13T12:41:52;100158.63;;;26.59
48854;BMP280;34673;52.808;17.856;2023-07-13T12:44:29;100159.25;;;26.63
48854;BMP280;34673;52.808;17.856;2023-07-13T12:47:05;100151.75;;;26.68
48854;BMP280;34673;52.808;17.856;2023-07-13T12:49:41;100149.59;;;26.73
48854;BMP280;34673;52.808;17.856;2023-07-13T12:52:19;100141.38;;;26.65
48854;BMP280;34673;52.808;17.856;2023-07-13T12:55:03;100139.81;;;26.73
48854;BMP280;34673;52.808;17.856;2023-07-13T12:57:39;100140.19;;;26.80
48854;BMP280;34673;52.808;17.856;2023-07-13T13:00:36;100140.69;;;26.63
48854;BMP280;34673;52.808;17.856;2023-07-13T13:03:15;100143.34;;;26.63
48854;BMP280;34673;52.808;17.856;2023-07-13T13:06:17;100152.38;;;26.71
48854;BMP280;34673;52.808;17.856;2023-07-13T13:08:49;100146.69;;;26.76
48854;BMP280;34673;52.808;17.856;2023-07-13T13:11:17;100150.78;;;26.80
48854;BMP280;34673;52.808;17.856;2023-07-13T13:13:45;100103.72;;;26.48
48854;BMP280;34673;52.808;17.856;2023-07-13T13:18:50;100147.19;;;26.70
48854;BMP280;34673;52.808;17.856;2023-07-13T13:21:18;100136.78;;;26.78
48854;BMP280;34673;52.808;17.856;2023-07-13T13:23:46;100138.72;;;26.99
48854;BMP280;34673;52.808;17.856;2023-07-13T13:26:14;100144.00;;;27.21
48854;BMP280;34673;52.808;17.856;2023-07-13T13:28:45;100140.16;;;27.25
48854;BMP280;34673;52.808;17.856;2023-07-13T13:31:13;100136.50;;;27.26
48854;BMP280;34673;52.808;17.856;2023-07-13T13:33:44;100133.56;;;27.40
48854;BMP280;34673;52.808;17.856;2023-07-13T13:36:17;100132.72;;;27.40
48854;BMP280;34673;52.808;17.856;2023-07-13T13:38:47;100130.44;;;27.35
48854;BMP280;34673;52.808;17.856;2023-07-13T13:41:14;100139.88;;;27.06
48854;BMP280;34673;52.808;17.856;2023-07-13T13:43:43;100143.09;;;26.77
48854;BMP280;34673;52.808;17.856;2023-07-13T13:46:17;100150.88;;;26.45
48854;BMP280;34673;52.808;17.856;2023-07-13T13:48:45;100150.22;;;26.19
48854;BMP280;34673;52.808;17.856;2023-07-13T13:51:19;100147.31;;;26.11
48854;BMP280;34673;52.808;17.856;2023-07-13T13:53:47;100144.41;;;26.02
48854;BMP280;34673;52.808;17.856;2023-07-13T13:56:15;100132.38;;;25.98
48854;BMP280;34673;52.808;17.856;2023-07-13T13:58:44;100141.75;;;26.02
48854;BMP280;34673;52.808;17.856;2023-07-13T14:01:17;100144.88;;;25.96
48854;BMP280;34673;52.808;17.856;2023-07-13T14:03:45;100143.66;;;25.89
48854;BMP280;34673;52.808;17.856;2023-07-13T14:06:13;100136.47;;;25.78
48854;BMP280;34673;52.808;17.856;2023-07-13T14:08:41;100158.03;;;25.74
48854;BMP280;34673;52.808;17.856;2023-07-13T14:11:13;100153.66;;;25.73
48854;BMP280;34673;52.808;17.856;2023-07-13T14:13:48;100148.28;;;25.74
48854;BMP280;34673;52.808;17.856;2023-07-13T14:16:18;100145.78;;;25.84
48854;BMP280;34673;52.808;17.856;2023-07-13T14:18:48;100145.59;;;25.87
48854;BMP280;34673;52.808;17.856;2023-07-13T14:21:18;100139.34;;;25.75
48854;BMP280;34673;52.808;17.856;2023-07-13T14:23:47;100144.28;;;25.69
48854;BMP280;34673;52.808;17.856;2023-07-13T14:26:24;100143.94;;;25.73
48854;BMP280;34673;52.808;17.856;2023-07-13T14:28:54;100143.88;;;25.86
48854;BMP280;34673;52.808;17.856;2023-07-13T14:31:23;100129.22;;;25.93
48854;BMP280;34673;52.808;17.856;2023-07-13T14:33:56;100130.56;;;25.75
48854;BMP280;34673;52.808;17.856;2023-07-13T14:36:27;100130.47;;;25.52
48854;BMP280;34673;52.808;17.856;2023-07-13T14:38:57;100131.38;;;25.40
48854;BMP280;34673;52.808;17.856;2023-07-13T14:41:25;100130.22;;;25.44
48854;BMP280;34673;52.808;17.856;2023-07-13T14:43:52;100133.91;;;25.41